Time;durP1;ratioP1;P1;durP2;ratioP2;P2;SDS_P1;SDS_P2;PMS_P1;PMS_P2;Temp;Humidity;BMP_temperature;BMP_pressure;BME280_temperature;BME280_humidity;BME280_pressure;Samples;Min_cycle;Max_cycle;Signal;HPM_P1;HPM_P2
2023/04/05 00:01:48;;;;;;;6.22;4.72;;;;;2.90;99108.00;;;;5017566;28;20073;-60
2023/04/05 00:04:19;;;;;;;9.02;5.03;;;;;2.80;99112.00;;;;5017164;28;20088;-60
2023/04/05 00:06:51;;;;;;;7.45;4.75;;;;;2.90;99104.00;;;;4999996;28;20112;-60
2023/04/05 00:09:19;;;;;;;6.15;4.43;;;;;2.80;99105.00;;;;4999264;28;20336;-56
2023/04/05 00:11:47;;;;;;;6.82;4.18;;;;;2.80;99107.00;;;;5015919;28;20104;-57
2023/04/05 00:14:14;;;;;;;8.60;4.10;;;;;2.90;99104.00;;;;4998599;28;20048;-57
2023/04/05 00:16:40;;;;;;;6.30;4.38;;;;;2.80;99106.00;;;;5015811;28;20088;-58
2023/04/05 00:19:09;;;;;;;7.68;4.45;;;;;2.90;99097.00;;;;5013296;28;20081;-57
2023/04/05 00:21:38;;;;;;;12.10;4.63;;;;;2.90;99104.00;;;;5012940;28;20042;-56
2023/04/05 00:24:05;;;;;;;7.60;4.40;;;;;2.90;99088.00;;;;5015446;28;20116;-56
2023/04/05 00:26:31;;;;;;;7.22;3.80;;;;;2.90;99093.00;;;;4997700;28;20053;-58
2023/04/05 00:28:58;;;;;;;8.95;4.72;;;;;2.80;99091.00;;;;5015159;28;20046;-57
2023/04/05 00:31:24;;;;;;;6.18;4.45;;;;;2.70;99084.00;;;;4997687;28;20392;-57
2023/04/05 00:33:51;;;;;;;10.25;5.03;;;;;2.70;99079.00;;;;5015178;28;20076;-56
2023/04/05 00:36:19;;;;;;;6.90;5.40;;;;;2.80;99083.00;;;;5014929;28;20046;-60
2023/04/05 00:38:47;;;;;;;7.05;5.20;;;;;2.80;99086.00;;;;4997112;28;20060;-61
2023/04/05 00:41:14;;;;;;;9.68;4.85;;;;;2.60;99087.00;;;;4997368;28;20045;-61
2023/04/05 00:43:41;;;;;;;11.05;4.82;;;;;2.50;99076.00;;;;4997125;28;20523;-58
2023/04/05 00:46:08;;;;;;;7.88;5.05;;;;;2.50;99079.00;;;;5014781;28;20041;-58
2023/04/05 00:48:35;;;;;;;8.45;5.05;;;;;2.40;99073.00;;;;4996901;28;20064;-56
2023/04/05 00:51:02;;;;;;;7.78;4.47;;;;;2.40;99071.00;;;;4996992;28;20041;-60
2023/04/05 00:53:30;;;;;;;5.88;4.53;;;;;2.30;99069.00;;;;4997301;28;20050;-58
2023/04/05 00:55:57;;;;;;;6.20;4.68;;;;;2.30;99074.00;;;;5014563;28;20064;-56
2023/04/05 00:58:24;;;;;;;5.88;4.10;;;;;2.10;99069.00;;;;5014493;28;20048;-58
2023/04/05 01:01:12;;;;;;;4.95;3.83;;;;;2.10;99072.00;;;;5014429;28;20121;-57
2023/04/05 01:03:45;;;;;;;5.65;3.80;;;;;2.10;99071.00;;;;4996823;28;20053;-56
2023/04/05 01:06:27;;;;;;;5.68;4.00;;;;;2.20;99074.00;;;;5015180;28;20506;-60
2023/04/05 01:09:16;;;;;;;6.65;4.13;;;;;2.30;99066.00;;;;4998570;28;20046;-56
2023/04/05 01:11:46;;;;;;;6.93;3.88;;;;;2.30;99068.00;;;;5014593;28;20487;-59
2023/04/05 01:14:12;;;;;;;6.60;4.15;;;;;2.30;99061.00;;;;5014353;28;20046;-60
2023/04/05 01:16:39;;;;;;;7.75;5.20;;;;;2.30;99066.00;;;;5014232;28;20041;-57
2023/04/05 01:19:08;;;;;;;5.43;4.22;;;;;2.30;99051.00;;;;5014073;28;20561;-58
2023/04/05 01:21:38;;;;;;;7.15;4.72;;;;;2.30;99048.00;;;;5014167;28;20046;-59
2023/04/05 01:24:32;;;;;;;6.63;4.78;;;;;2.40;99054.00;;;;4996486;28;20044;-61
2023/04/05 01:27:18;;;;;;;6.78;4.30;;;;;2.50;99053.00;;;;5014085;28;20046;-59
2023/04/05 01:30:03;;;;;;;5.50;4.50;;;;;2.50;99048.00;;;;5013846;28;20045;-56
2023/04/05 01:32:35;;;;;;;8.02;4.75;;;;;2.50;99051.00;;;;4996259;28;20498;-57
2023/04/05 01:35:25;;;;;;;6.93;5.00;;;;;2.60;99043.00;;;;5012173;28;20494;-57
2023/04/05 01:37:58;;;;;;;5.25;4.43;;;;;2.60;99043.00;;;;5013889;28;20049;-58
2023/04/05 01:40:25;;;;;;;5.93;4.68;;;;;2.60;99043.00;;;;5013566;28;20483;-57
2023/04/05 01:42:51;;;;;;;7.18;4.88;;;;;2.50;99044.00;;;;4995967;28;20045;-61
2023/04/05 01:45:18;;;;;;;7.00;5.03;;;;;2.50;99044.00;;;;5013689;28;20042;-59
2023/04/05 01:47:44;;;;;;;8.93;6.15;;;;;2.40;99048.00;;;;4996377;28;20049;-57
2023/04/05 01:50:11;;;;;;;7.05;5.47;;;;;2.40;99052.00;;;;4995836;28;20096;-61
2023/04/05 01:52:38;;;;;;;10.38;6.35;;;;;2.40;99052.00;;;;4996156;28;20498;-58
2023/04/05 01:55:05;;;;;;;7.65;5.35;;;;;2.40;99053.00;;;;5013511;28;20042;-56
2023/04/05 01:57:31;;;;;;;7.65;5.28;;;;;2.30;99036.00;;;;4996029;28;20104;-57
2023/04/05 01:59:58;;;;;;;7.05;4.90;;;;;2.30;99043.00;;;;5011933;28;20410;-61
2023/04/05 02:02:25;;;;;;;9.18;5.25;;;;;2.30;99041.00;;;;5013683;28;20388;-56
2023/04/05 02:04:53;;;;;;;9.13;5.63;;;;;2.20;99036.00;;;;4995803;28;20108;-56
2023/04/05 02:07:21;;;;;;;12.02;5.55;;;;;2.20;99034.00;;;;4996212;28;20049;-56
2023/04/05 02:09:47;;;;;;;9.82;5.93;;;;;2.20;99033.00;;;;5012004;28;20520;-56
2023/04/05 02:12:14;;;;;;;8.95;5.95;;;;;2.30;99030.00;;;;4995567;28;20046;-60
2023/04/05 02:14:40;;;;;;;10.13;6.43;;;;;2.20;99038.00;;;;5013218;28;20076;-57
2023/04/05 02:17:07;;;;;;;8.45;6.07;;;;;2.10;99029.00;;;;4995711;28;20498;-58
2023/04/05 02:19:39;;;;;;;8.93;5.70;;;;;2.00;99027.00;;;;5012900;28;20056;-57
2023/04/05 02:22:07;;;;;;;7.22;5.68;;;;;1.90;99026.00;;;;4995601;28;20547;-61
2023/04/05 02:24:34;;;;;;;8.35;5.63;;;;;1.80;99026.00;;;;4995670;28;20069;-57
2023/04/05 02:27:00;;;;;;;7.47;5.05;;;;;1.70;99016.00;;;;4995220;28;20054;-60
2023/04/05 02:29:27;;;;;;;8.65;5.13;;;;;1.70;99010.00;;;;5012662;28;20415;-58
2023/04/05 02:31:54;;;;;;;7.05;4.78;;;;;1.70;99013.00;;;;5013579;28;20413;-57
2023/04/05 02:34:21;;;;;;;7.05;4.78;;;;;1.60;99015.00;;;;5014550;28;20033;-56
2023/04/05 02:36:51;;;;;;;5.65;4.45;;;;;1.50;99021.00;;;;5014235;28;20042;-57
2023/04/05 02:39:18;;;;;;;5.88;4.47;;;;;1.40;99014.00;;;;5012631;28;20052;-58
2023/04/05 02:41:45;;;;;;;9.57;4.82;;;;;1.40;99016.00;;;;4995305;28;20145;-57
2023/04/05 02:44:12;;;;;;;6.70;3.63;;;;;1.40;99018.00;;;;4995226;28;20491;-60
2023/04/05 02:46:39;;;;;;;6.20;4.00;;;;;1.30;99009.00;;;;5011503;28;20060;-57
2023/04/05 02:49:05;;;;;;;8.10;4.32;;;;;1.20;99010.00;;;;5012665;28;20038;-59
2023/04/05 02:51:34;;;;;;;5.35;4.15;;;;;1.20;99005.00;;;;4995095;28;20049;-59
2023/04/05 02:54:05;;;;;;;5.57;4.10;;;;;1.20;98999.00;;;;5011875;28;20498;-58
2023/04/05 02:56:34;;;;;;;4.50;3.63;;;;;1.20;99005.00;;;;4995101;28;20049;-58
2023/04/05 02:59:06;;;;;;;6.75;4.07;;;;;1.20;99003.00;;;;4995021;28;20058;-58
2023/04/05 03:01:35;;;;;;;6.00;3.83;;;;;1.30;99005.00;;;;5012528;28;20041;-58
2023/04/05 03:04:02;;;;;;;6.20;3.78;;;;;1.20;99007.00;;;;4995040;28;20038;-59
2023/04/05 03:06:30;;;;;;;5.38;3.60;;;;;1.30;99001.00;;;;4994876;28;20058;-59
2023/04/05 03:08:58;;;;;;;5.57;3.42;;;;;1.30;99004.00;;;;4994865;28;20439;-59
2023/04/05 03:11:25;;;;;;;6.70;4.25;;;;;1.30;98997.00;;;;5011332;28;20459;-59
2023/04/05 03:13:56;;;;;;;20.42;7.32;;;;;1.30;98997.00;;;;4995117;28;20053;-58
2023/04/05 03:16:33;;;;;;;12.75;4.93;;;;;1.20;98989.00;;;;4995313;28;20511;-58
2023/04/05 03:19:06;;;;;;;13.43;4.57;;;;;1.20;98988.00;;;;4995048;28;20050;-59
2023/04/05 03:21:36;;;;;;;9.23;4.90;;;;;1.20;98998.00;;;;5013055;28;20053;-59
2023/04/05 03:24:10;;;;;;;;;;;;;1.20;98994.00;;;;5014750;28;20049;-60
2023/04/05 03:26:39;;;;;;;6.93;4.18;;;;;1.00;98998.00;;;;5014629;28;20378;-60
2023/04/05 03:29:06;;;;;;;5.03;4.32;;;;;1.00;98994.00;;;;4995304;28;20046;-58
2023/04/05 03:31:36;;;;;;;5.18;3.80;;;;;0.90;98994.00;;;;5012495;28;20049;-59
2023/04/05 03:34:06;;;;;;;5.75;4.07;;;;;1.00;98992.00;;;;4994946;28;20046;-61
2023/04/05 03:36:41;;;;;;;4.85;3.53;;;;;1.10;99001.00;;;;4995989;28;20449;-60
2023/04/05 03:39:16;;;;;;;7.13;3.97;;;;;1.20;98991.00;;;;4994285;28;20053;-59
2023/04/05 03:41:43;;;;;;;7.43;4.30;;;;;1.30;99005.00;;;;5011926;28;20041;-60
2023/04/05 03:44:10;;;;;;;9.02;4.82;;;;;1.30;99000.00;;;;4995097;28;20137;-58
2023/04/05 03:46:37;;;;;;;8.32;4.70;;;;;1.30;99005.00;;;;5012305;28;20046;-59
2023/04/05 03:49:06;;;;;;;7.35;4.53;;;;;1.30;99004.00;;;;4995011;28;20054;-59
2023/04/05 03:51:32;;;;;;;11.52;5.07;;;;;1.30;99001.00;;;;5012689;28;20507;-59
2023/04/05 03:53:59;;;;;;;8.45;4.85;;;;;1.30;99002.00;;;;5012959;28;20402;-59
2023/04/05 03:56:31;;;;;;;7.13;4.90;;;;;1.20;98987.00;;;;5011431;28;20042;-58
2023/04/05 03:59:05;;;;;;;7.20;5.25;;;;;1.10;98995.00;;;;4998448;28;20050;-58
2023/04/05 04:01:32;;;;;;;8.02;5.22;;;;;1.00;98994.00;;;;4998747;28;20100;-59
2023/04/05 04:03:59;;;;;;;8.10;5.03;;;;;0.90;98985.00;;;;4999354;28;20502;-58
2023/04/05 04:06:26;;;;;;;7.03;5.47;;;;;1.00;98989.00;;;;4998755;28;20095;-58
2023/04/05 04:08:53;;;;;;;8.50;5.10;;;;;1.10;98986.00;;;;5015714;28;20402;-58
2023/04/05 04:11:19;;;;;;;10.68;5.05;;;;;1.20;98989.00;;;;5015973;28;20505;-59
2023/04/05 04:13:46;;;;;;;7.75;5.00;;;;;1.10;98985.00;;;;5016901;28;20423;-58
2023/04/05 04:16:31;;;;;;;5.20;4.63;;;;;1.00;98983.00;;;;5016479;28;20303;-59
2023/04/05 04:19:29;;;;;;;8.23;4.70;;;;;1.00;98990.00;;;;4998880;28;20137;-59
2023/04/05 04:22:19;;;;;;;6.43;5.10;;;;;0.90;98994.00;;;;5015274;28;20418;-59
2023/04/05 04:25:10;;;;;;;8.48;5.18;;;;;1.00;98980.00;;;;4989912;28;20065;-59
2023/04/05 04:28:06;;;;;;;8.70;5.35;;;;;1.00;98995.00;;;;4934498;28;20530;-58
2023/04/05 04:30:46;;;;;;;9.05;5.68;;;;;1.00;98999.00;;;;4997942;28;20042;-58
2023/04/05 04:33:45;;;;;;;7.90;5.60;;;;;1.10;98990.00;;;;4961360;28;20181;-58
2023/04/05 04:36:12;;;;;;;8.40;5.32;;;;;1.10;98987.00;;;;5015749;28;20054;-58
2023/04/05 04:38:52;;;;;;;8.32;5.40;;;;;1.20;98985.00;;;;5015541;28;20140;-59
2023/04/05 04:41:37;;;;;;;8.70;5.25;;;;;1.20;98985.00;;;;5014198;28;20137;-59
2023/04/05 04:44:06;;;;;;;7.13;5.43;;;;;1.20;98981.00;;;;5015379;28;20061;-59
2023/04/05 04:46:55;;;;;;;7.78;5.75;;;;;1.30;98995.00;;;;5018979;28;20053;-61
2023/04/05 04:49:46;;;;;;;8.02;5.93;;;;;1.20;98999.00;;;;5002612;28;20050;-61
2023/04/05 04:52:12;;;;;;;9.20;5.80;;;;;1.20;98993.00;;;;5020471;28;20042;-62
2023/04/05 04:54:41;;;;;;;10.93;5.50;;;;;1.10;98997.00;;;;5018877;28;20384;-62
2023/04/05 04:57:08;;;;;;;7.78;5.68;;;;;0.80;98992.00;;;;5001773;28;20077;-62
2023/04/05 04:59:34;;;;;;;6.88;5.35;;;;;0.70;98983.00;;;;5018197;28;20033;-62
2023/04/05 05:02:03;;;;;;;8.07;5.57;;;;;0.50;98994.00;;;;5000711;28;20046;-62
2023/04/05 05:04:30;;;;;;;9.18;6.15;;;;;0.60;98995.00;;;;5018344;28;20045;-61
2023/04/05 05:06:57;;;;;;;8.50;5.63;;;;;0.70;98991.00;;;;5018304;28;20038;-62
2023/04/05 05:09:24;;;;;;;10.05;5.10;;;;;0.80;98998.00;;;;5016518;28;20491;-61
2023/04/05 05:11:58;;;;;;;7.80;5.85;;;;;0.90;98994.00;;;;5016996;28;20046;-62
2023/04/05 05:14:24;;;;;;;8.10;5.68;;;;;1.00;99005.00;;;;5018122;28;20510;-61
2023/04/05 05:16:53;;;;;;;11.75;6.20;;;;;0.90;99008.00;;;;5018290;28;20535;-61
2023/04/05 05:19:20;;;;;;;7.05;5.45;;;;;0.80;99002.00;;;;5018506;28;20073;-61
2023/04/05 05:21:51;;;;;;;6.97;5.30;;;;;0.70;98993.00;;;;5000784;28;20506;-61
2023/04/05 05:24:19;;;;;;;6.45;5.05;;;;;0.70;98997.00;;;;5018202;28;20522;-61
2023/04/05 05:26:45;;;;;;;20.42;12.10;;;;;0.70;98991.00;;;;5018262;28;20061;-60
2023/04/05 05:29:12;;;;;;;13.27;7.55;;;;;0.90;98997.00;;;;5019015;28;20042;-61
2023/04/05 05:31:42;;;;;;;10.68;6.32;;;;;1.10;99001.00;;;;5002863;28;20050;-60
2023/04/05 05:34:09;;;;;;;13.15;6.03;;;;;1.20;98998.00;;;;5020280;28;20076;-61
2023/04/05 05:36:37;;;;;;;12.90;6.82;;;;;1.30;99005.00;;;;5002053;28;20042;-62
2023/04/05 05:39:05;;;;;;;7.90;5.88;;;;;1.40;99012.00;;;;5020816;28;20549;-61
2023/04/05 05:41:31;;;;;;;32.15;14.48;;;;;1.50;99004.00;;;;5022333;28;20446;-62
2023/04/05 05:43:58;;;;;;;12.38;7.30;;;;;1.50;98999.00;;;;5021548;28;20046;-62
2023/04/05 05:46:25;;;;;;;9.55;6.30;;;;;1.30;98996.00;;;;5020708;28;20100;-61
2023/04/05 05:48:51;;;;;;;8.82;5.38;;;;;1.30;98990.00;;;;4988159;28;20053;-62
2023/04/05 05:51:18;;;;;;;10.45;5.07;;;;;1.40;99002.00;;;;5021599;28;20042;-62
2023/04/05 05:53:45;;;;;;;8.30;5.22;;;;;1.60;99002.00;;;;5021539;28;20100;-60
2023/04/05 05:56:12;;;;;;;7.57;5.00;;;;;1.50;99013.00;;;;5020826;28;20450;-61
2023/04/05 05:58:39;;;;;;;7.13;5.47;;;;;1.40;99006.00;;;;5020038;28;20057;-60
2023/04/05 06:01:06;;;;;;;10.13;5.55;;;;;1.50;99004.00;;;;5020676;28;20045;-62
2023/04/05 06:03:32;;;;;;;8.27;5.65;;;;;1.50;99010.00;;;;5003389;28;20065;-60
2023/04/05 06:06:02;;;;;;;7.82;4.68;;;;;1.50;99015.00;;;;5021025;28;20053;-61
2023/04/05 06:08:28;;;;;;;8.73;5.15;;;;;1.50;99016.00;;;;5021259;28;20058;-61
2023/04/05 06:10:55;;;;;;;8.35;4.85;;;;;1.60;99016.00;;;;5020166;28;20054;-58
2023/04/05 06:13:21;;;;;;;6.75;4.63;;;;;1.70;99010.00;;;;5018468;28;20049;-60
2023/04/05 06:15:49;;;;;;;6.95;4.70;;;;;1.80;99015.00;;;;5019868;28;20041;-60
2023/04/05 06:18:15;;;;;;;7.85;5.15;;;;;1.80;99005.00;;;;5021484;28;20221;-60
2023/04/05 06:20:43;;;;;;;7.15;4.80;;;;;1.90;99005.00;;;;5005254;28;20065;-62
2023/04/05 06:23:10;;;;;;;6.47;5.28;;;;;2.00;99002.00;;;;5021161;28;20077;-61
2023/04/05 06:25:37;;;;;;;8.55;5.25;;;;;2.20;99013.00;;;;5003471;28;20042;-63
2023/04/05 06:28:04;;;;;;;7.40;5.00;;;;;2.20;99006.00;;;;5020549;28;20046;-61
2023/04/05 06:30:32;;;;;;;11.10;5.72;;;;;2.20;99009.00;;;;5020778;28;20046;-63
2023/04/05 06:32:59;;;;;;;9.85;6.10;;;;;2.40;99009.00;;;;5005529;28;20046;-63
2023/04/05 06:35:26;;;;;;;6.93;5.18;;;;;2.40;99007.00;;;;5005039;28;20065;-60
2023/04/05 06:37:52;;;;;;;7.90;5.95;;;;;2.40;99002.00;;;;5022143;28;20050;-60
2023/04/05 06:40:19;;;;;;;10.10;5.65;;;;;2.50;99003.00;;;;5019390;28;20081;-60
2023/04/05 06:42:46;;;;;;;6.75;5.60;;;;;2.50;99008.00;;;;5020318;28;20046;-61
2023/04/05 06:45:18;;;;;;;9.18;5.55;;;;;2.70;99001.00;;;;5020960;28;20053;-60
2023/04/05 06:47:44;;;;;;;8.73;5.88;;;;;2.80;99015.00;;;;5008328;28;20057;-59
2023/04/05 06:50:11;;;;;;;15.50;6.55;;;;;2.90;99011.00;;;;5015139;28;20048;-58
2023/04/05 06:52:38;;;;;;;11.07;6.68;;;;;2.90;99007.00;;;;5012912;28;20107;-58
2023/04/05 06:55:05;;;;;;;10.15;5.72;;;;;2.80;99007.00;;;;5012912;28;20495;-60
2023/04/05 06:57:31;;;;;;;8.75;5.50;;;;;2.90;99006.00;;;;5012795;28;20491;-59
2023/04/05 06:59:58;;;;;;;9.38;6.57;;;;;3.10;99005.00;;;;5012588;28;20046;-58
2023/04/05 07:02:24;;;;;;;9.90;6.90;;;;;3.30;99004.00;;;;5012529;28;20034;-60
2023/04/05 07:04:52;;;;;;;9.88;7.40;;;;;3.40;99008.00;;;;5012843;28;20041;-59
2023/04/05 07:07:18;;;;;;;7.60;6.30;;;;;3.60;99012.00;;;;4995050;28;20054;-59
2023/04/05 07:09:45;;;;;;;11.23;6.93;;;;;3.70;99011.00;;;;5012288;28;20483;-59
2023/04/05 07:12:11;;;;;;;9.15;6.63;;;;;3.80;99011.00;;;;5012452;28;20093;-58
2023/04/05 07:14:38;;;;;;;11.55;6.90;;;;;3.90;99017.00;;;;5012471;28;20068;-59
2023/04/05 07:17:06;;;;;;;11.85;7.38;;;;;3.90;99014.00;;;;5012563;28;20072;-59
2023/04/05 07:19:32;;;;;;;10.93;7.00;;;;;4.00;99005.00;;;;5012237;28;20510;-59
2023/04/05 07:22:00;;;;;;;11.10;6.60;;;;;4.20;99014.00;;;;5012568;28;20050;-60
2023/04/05 07:24:26;;;;;;;8.63;6.45;;;;;4.20;99015.00;;;;5012348;28;20133;-57
2023/04/05 07:26:53;;;;;;;10.88;6.45;;;;;4.10;99003.00;;;;5012105;28;20046;-58
2023/04/05 07:29:19;;;;;;;8.82;6.40;;;;;4.30;99018.00;;;;5012097;28;20042;-59
2023/04/05 07:31:46;;;;;;;8.20;6.28;;;;;4.50;99003.00;;;;5013089;28;20045;-59
2023/04/05 07:34:13;;;;;;;11.35;7.60;;;;;4.70;99005.00;;;;4998764;28;20112;-58
2023/04/05 07:36:39;;;;;;;7.60;5.82;;;;;4.80;99015.00;;;;5016321;28;20046;-59
2023/04/05 07:39:06;;;;;;;9.35;6.20;;;;;4.90;99012.00;;;;5015989;28;20064;-59
2023/04/05 07:41:34;;;;;;;10.80;6.75;;;;;4.90;99004.00;;;;5015948;28;20046;-58
2023/04/05 07:44:00;;;;;;;8.65;6.13;;;;;4.80;99019.00;;;;5016435;28;20430;-59
2023/04/05 07:46:28;;;;;;;10.68;5.93;;;;;4.90;99018.00;;;;5014825;28;20038;-59
2023/04/05 07:48:55;;;;;;;8.77;5.95;;;;;4.90;99017.00;;;;5015796;28;20054;-58
2023/04/05 07:51:22;;;;;;;9.13;6.47;;;;;5.10;99009.00;;;;5015355;28;20042;-58
2023/04/05 07:53:48;;;;;;;6.82;6.07;;;;;5.20;99024.00;;;;5016346;28;20048;-57
2023/04/05 07:56:15;;;;;;;10.20;5.93;;;;;5.40;99019.00;;;;5015839;28;20054;-58
2023/04/05 07:58:42;;;;;;;7.93;6.10;;;;;5.60;99028.00;;;;5015761;28;20057;-58
2023/04/05 08:01:09;;;;;;;9.48;6.68;;;;;5.70;99019.00;;;;5015845;28;20041;-58
2023/04/05 08:03:38;;;;;;;9.02;6.47;;;;;5.80;99014.00;;;;5015900;28;20088;-59
2023/04/05 08:06:23;;;;;;;18.50;10.77;;;;;6.00;99015.00;;;;5015618;28;20049;-58
2023/04/05 08:08:50;;;;;;;11.32;6.10;;;;;6.00;99015.00;;;;5015306;28;20046;-59
2023/04/05 08:11:16;;;;;;;8.07;6.40;;;;;6.10;99019.00;;;;5014515;28;20049;-60
2023/04/05 08:13:43;;;;;;;14.82;6.57;;;;;6.30;99014.00;;;;5015501;28;20050;-60
2023/04/05 08:16:10;;;;;;;7.82;4.95;;;;;6.30;99015.00;;;;5016194;28;20053;-59
2023/04/05 08:18:37;;;;;;;8.40;5.80;;;;;6.20;99008.00;;;;5015727;28;20096;-60
2023/04/05 08:21:04;;;;;;;8.50;6.22;;;;;6.40;99003.00;;;;5015630;28;20495;-60
2023/04/05 08:23:31;;;;;;;5.72;4.95;;;;;6.50;99006.00;;;;5015678;28;20112;-60
2023/04/05 08:25:57;;;;;;;8.60;5.03;;;;;6.70;99015.00;;;;4998153;28;20046;-59
2023/04/05 08:28:24;;;;;;;7.25;5.32;;;;;6.80;99001.00;;;;4997942;28;20050;-60
2023/04/05 08:30:55;;;;;;;8.48;4.97;;;;;6.80;99004.00;;;;5015667;28;20046;-59
2023/04/05 08:33:22;;;;;;;8.27;5.65;;;;;7.00;99002.00;;;;5016042;28;20414;-60
2023/04/05 08:35:48;;;;;;;8.77;5.75;;;;;7.20;99008.00;;;;4997631;28;20510;-59
2023/04/05 08:38:15;;;;;;;8.02;4.82;;;;;7.20;98998.00;;;;5015094;28;20041;-60
2023/04/05 08:40:44;;;;;;;8.05;4.70;;;;;7.40;99002.00;;;;5014794;28;20200;-60
2023/04/05 08:43:56;;;;;;;5.53;4.15;;;;;7.40;98997.00;;;;5014784;28;20414;-60
2023/04/05 08:46:23;;;;;;;5.32;4.57;;;;;7.50;99003.00;;;;4954125;29;20051;-59
2023/04/05 08:48:50;;;;;;;4.68;4.15;;;;;7.50;99001.00;;;;4953924;29;20143;-60
2023/04/05 08:51:21;;;;;;;5.95;4.30;;;;;7.60;98997.00;;;;4978965;28;20554;-59
2023/04/05 08:53:48;;;;;;;6.10;4.00;;;;;7.60;98998.00;;;;5014978;28;20096;-64
2023/04/05 08:56:19;;;;;;;6.20;3.75;;;;;7.70;99002.00;;;;5014767;28;20112;-60
2023/04/05 08:59:06;;;;;;;8.27;3.67;;;;;7.70;99002.00;;;;5014562;28;20050;-60
2023/04/05 09:01:36;;;;;;;4.53;3.95;;;;;7.80;98999.00;;;;4997462;28;20046;-59
2023/04/05 09:04:10;;;;;;;4.68;3.85;;;;;7.90;99004.00;;;;5014690;28;20046;-59
2023/04/05 09:06:36;;;;;;;7.40;4.50;;;;;7.70;98992.00;;;;5014670;28;20041;-60
2023/04/05 09:09:07;;;;;;;6.15;4.63;;;;;7.80;99004.00;;;;5013161;28;20041;-60
2023/04/05 09:11:35;;;;;;;5.85;3.95;;;;;8.00;99007.00;;;;5014594;28;20053;-59
2023/04/05 09:14:05;;;;;;;4.22;3.83;;;;;8.10;99004.00;;;;5014860;28;20495;-58
2023/04/05 09:16:39;;;;;;;5.30;3.92;;;;;8.00;99004.00;;;;4997693;28;20469;-59
2023/04/05 09:19:10;;;;;;;6.95;3.95;;;;;8.00;99004.00;;;;5014395;28;20133;-61
2023/04/05 09:22:05;;;;;;;5.53;3.92;;;;;8.20;99010.00;;;;5014425;28;20050;-61
2023/04/05 09:24:41;;;;;;;5.00;3.63;;;;;8.10;99000.00;;;;4997039;28;20507;-60
2023/04/05 09:27:12;;;;;;;6.43;4.50;;;;;8.20;99013.00;;;;5014262;28;20053;-60
2023/04/05 09:29:40;;;;;;;7.28;3.55;;;;;8.30;98992.00;;;;4996566;28;20112;-61
2023/04/05 09:32:09;;;;;;;8.15;4.43;;;;;8.50;98995.00;;;;4996771;28;20058;-59
2023/04/05 09:34:38;;;;;;;6.55;3.65;;;;;8.70;98996.00;;;;5014361;28;20495;-61
2023/04/05 09:37:15;;;;;;;4.90;3.90;;;;;8.70;98998.00;;;;5014390;28;20033;-61
2023/04/05 09:39:44;;;;;;;;;;;;;8.90;99002.00;;;;5014157;28;20053;-60
2023/04/05 09:42:14;;;;;;;5.63;4.13;;;;;9.10;99003.00;;;;5013835;28;19921;-60
2023/04/05 09:45:04;;;;;;;6.20;4.07;;;;;8.90;98999.00;;;;4996131;28;20041;-60
2023/04/05 09:47:36;;;;;;;5.25;3.95;;;;;8.80;98995.00;;;;4996297;28;20046;-61
2023/04/05 09:50:15;;;;;;;6.40;4.15;;;;;8.90;98999.00;;;;5012080;28;20100;-59
2023/04/05 09:53:19;;;;;;;7.80;4.47;;;;;8.80;98981.00;;;;5013632;28;20049;-61
2023/04/05 09:55:48;;;;;;;7.38;5.07;;;;;9.00;98992.00;;;;4995267;28;20096;-59
2023/04/05 09:58:20;;;;;;;5.75;3.63;;;;;9.10;98982.00;;;;4996501;28;20096;-58
2023/04/05 10:00:53;;;;;;;7.32;4.10;;;;;9.20;98987.00;;;;5014117;28;20045;-59
2023/04/05 10:03:46;;;;;;;7.03;4.05;;;;;9.20;98979.00;;;;5013783;28;20049;-61
2023/04/05 10:06:17;;;;;;;6.05;3.78;;;;;9.20;98982.00;;;;4996179;28;20053;-59
2023/04/05 10:08:47;;;;;;;5.53;3.10;;;;;9.20;98981.00;;;;5013262;28;20049;-61
2023/04/05 10:11:17;;;;;;;6.00;3.38;;;;;9.10;98976.00;;;;5013171;28;20045;-61
2023/04/05 10:13:45;;;;;;;12.45;8.27;;;;;9.30;98973.00;;;;5013250;28;20050;-60
2023/04/05 10:16:14;;;;;;;5.70;4.57;;;;;9.50;98975.00;;;;4995961;28;20096;-59
2023/04/05 10:18:50;;;;;;;5.57;4.10;;;;;9.70;98974.00;;;;5012994;28;20096;-61
2023/04/05 10:21:32;;;;;;;5.25;3.90;;;;;9.80;98968.00;;;;5013303;28;20046;-61
2023/04/05 10:24:31;;;;;;;3.88;3.33;;;;;9.80;98977.00;;;;5013277;28;20560;-61
2023/04/05 10:27:05;;;;;;;6.43;4.28;;;;;9.60;98973.00;;;;5005218;28;20054;-62
2023/04/05 10:29:42;;;;;;;5.75;4.20;;;;;9.60;98967.00;;;;5013107;28;20111;-59
2023/04/05 10:32:47;;;;;;;6.38;3.95;;;;;9.90;98968.00;;;;5012927;28;20514;-59
2023/04/05 10:35:27;;;;;;;6.20;3.85;;;;;10.00;98966.00;;;;4990988;28;20057;-60
2023/04/05 10:38:12;;;;;;;9.35;6.97;;;;;10.20;98964.00;;;;5013352;28;20388;-60
2023/04/05 10:40:44;;;;;;;5.85;3.25;;;;;10.20;98962.00;;;;5012575;28;20046;-61
2023/04/05 10:43:17;;;;;;;6.57;3.88;;;;;10.10;98966.00;;;;4995512;28;20056;-62
2023/04/05 10:45:47;;;;;;;5.47;3.20;;;;;10.00;98973.00;;;;5012616;28;20041;-60
2023/04/05 10:48:53;;;;;;;6.05;3.40;;;;;10.00;98966.00;;;;4995386;28;20301;-60
2023/04/05 10:51:22;;;;;;;4.88;3.90;;;;;10.10;98967.00;;;;5012877;28;20038;-62
2023/04/05 10:53:50;;;;;;;5.47;4.30;;;;;10.10;98963.00;;;;5013060;28;20412;-58
2023/04/05 10:56:18;;;;;;;9.05;4.20;;;;;10.10;98961.00;;;;4994946;28;20045;-59
2023/04/05 10:58:47;;;;;;;5.15;3.75;;;;;10.10;98968.00;;;;5012621;28;20407;-59
2023/04/05 11:01:16;;;;;;;7.28;4.47;;;;;10.10;98956.00;;;;5013193;28;20072;-61
2023/04/05 11:03:48;;;;;;;4.80;3.55;;;;;10.10;98955.00;;;;5013670;28;20046;-58
2023/04/05 11:06:30;;;;;;;5.68;3.65;;;;;10.20;98964.00;;;;5012889;28;20042;-59
2023/04/05 11:09:10;;;;;;;5.95;3.53;;;;;10.20;98947.00;;;;5012591;28;20450;-59
2023/04/05 11:11:47;;;;;;;5.03;4.05;;;;;10.30;98946.00;;;;5012793;28;20052;-60
2023/04/05 11:14:20;;;;;;;4.70;3.15;;;;;10.50;98952.00;;;;5012560;28;20104;-61
2023/04/05 11:16:53;;;;;;;6.38;3.70;;;;;10.60;98943.00;;;;5012430;28;20046;-60
2023/04/05 11:19:20;;;;;;;3.95;3.20;;;;;10.80;98951.00;;;;5012162;28;20041;-60
2023/04/05 11:21:46;;;;;;;6.70;3.63;;;;;10.90;98950.00;;;;5012288;28;20391;-60
2023/04/05 11:24:18;;;;;;;6.50;3.42;;;;;11.00;98947.00;;;;5012398;28;20041;-61
2023/04/05 11:26:44;;;;;;;3.45;3.13;;;;;10.90;98942.00;;;;5012275;28;20092;-60
2023/04/05 11:29:11;;;;;;;3.35;2.90;;;;;10.90;98942.00;;;;4994369;28;20046;-59
2023/04/05 11:31:58;;;;;;;13.40;9.25;;;;;11.20;98936.00;;;;5012108;28;20050;-59
2023/04/05 11:34:25;;;;;;;8.32;4.80;;;;;11.10;98938.00;;;;5012551;28;20049;-60
2023/04/05 11:36:52;;;;;;;10.27;7.05;;;;;11.00;98935.00;;;;5012201;28;20080;-60
2023/04/05 11:39:19;;;;;;;6.93;4.13;;;;;11.10;98934.00;;;;5012081;28;20050;-60
2023/04/05 11:41:46;;;;;;;6.00;3.63;;;;;11.20;98931.00;;;;5012451;28;20112;-60
2023/04/05 11:44:14;;;;;;;3.58;3.28;;;;;11.10;98932.00;;;;5012092;28;20522;-61
2023/04/05 11:46:41;;;;;;;5.22;4.30;;;;;11.20;98931.00;;;;5012501;28;20050;-59
2023/04/05 11:49:08;;;;;;;6.40;3.78;;;;;11.30;98923.00;;;;5011804;28;20099;-60
2023/04/05 11:51:35;;;;;;;6.10;3.00;;;;;11.30;98919.00;;;;5011957;28;20042;-59
2023/04/05 11:54:01;;;;;;;4.40;3.08;;;;;11.40;98913.00;;;;5012057;28;20513;-60
2023/04/05 11:56:28;;;;;;;4.80;3.33;;;;;11.60;98912.00;;;;5012013;28;20046;-59
2023/04/05 11:58:58;;;;;;;4.38;3.67;;;;;11.40;98918.00;;;;5011919;28;20045;-59
2023/04/05 12:01:25;;;;;;;6.88;3.10;;;;;11.60;98917.00;;;;5011814;28;20041;-59
2023/04/05 12:03:55;;;;;;;6.15;3.40;;;;;11.60;98927.00;;;;4994576;28;20053;-59
2023/04/05 12:06:24;;;;;;;6.38;3.83;;;;;11.50;98909.00;;;;5013087;28;20042;-60
2023/04/05 12:08:54;;;;;;;3.60;3.30;;;;;11.50;98910.00;;;;5012632;28;20045;-60
2023/04/05 12:11:32;;;;;;;5.20;3.45;;;;;11.50;98904.00;;;;4994847;28;20053;-59
2023/04/05 12:14:00;;;;;;;4.38;3.15;;;;;11.40;98913.00;;;;5011942;28;20564;-60
2023/04/05 12:16:28;;;;;;;4.53;3.35;;;;;11.50;98911.00;;;;4994579;28;20045;-61
2023/04/05 12:18:59;;;;;;;4.65;3.42;;;;;11.90;98905.00;;;;4996642;28;20144;-60
2023/04/05 12:21:26;;;;;;;5.43;3.33;;;;;12.10;98903.00;;;;5015532;28;20073;-61
2023/04/05 12:23:53;;;;;;;4.88;3.65;;;;;12.10;98903.00;;;;5015480;28;20049;-61
2023/04/05 12:26:21;;;;;;;6.63;3.33;;;;;11.90;98899.00;;;;5015228;28;20041;-60
2023/04/05 12:28:57;;;;;;;4.75;3.25;;;;;11.80;98894.00;;;;5014891;28;20096;-59
2023/04/05 12:31:44;;;;;;;4.07;3.63;;;;;12.20;98886.00;;;;5015128;28;20056;-60
2023/04/05 12:34:12;;;;;;;5.10;3.33;;;;;12.20;98888.00;;;;5015248;28;20108;-60
2023/04/05 12:36:44;;;;;;;5.10;3.50;;;;;12.30;98889.00;;;;5015324;28;20045;-60
2023/04/05 12:39:11;;;;;;;5.93;3.50;;;;;12.10;98886.00;;;;5015040;28;20053;-60
2023/04/05 12:41:38;;;;;;;3.30;2.88;;;;;12.00;98889.00;;;;5015031;28;20077;-61